Πλησιέστερες Αναφορές METAR

 

LGTS - Thessaloniki/Makedonia-Elev 7m
Απόσταση από σταθμό: Ν 13km
Ενημερώθηκε: 26/04/2017 23:50
Αίθριος
Αίθριος
 Ανεμοι από μεταβλητός
Ανεμος: μεταβλητός 6 km/h
Θερμοκρασία: 11°C
Σημείο Δρόσου: 7°C
Υγρασία: 77%
Βαρόμετρο: 1019 hPa
Περίληψη: Αίθριος
Ορατότητα: πάνω από 10 km
2017/04/26 20:50 LGTS 262050Z VRB03KT CAVOK 11/07 Q1019 NOSIG
LGAV - Athens/Elef. Venizelos-Elev 94m
Απόσταση από σταθμό: ΝΝΑ 312km
Ενημερώθηκε: 26/04/2017 23:50
Αίθριος
Αίθριος
 Ανεμοι από Δ
Ανεμος: Δ 4 km/h
Θερμοκρασία: 15°C
Σημείο Δρόσου: 2°C
Υγρασία: 42%
Βαρόμετρο: 1019 hPa
Περίληψη: Αίθριος
Ορατότητα: πάνω από 10 km
2017/04/26 20:50 LGAV 262050Z 27002KT CAVOK 15/02 Q1019 NOSIG
 
LGAL - Alexandroupolis-Elev 3m
Απόσταση από σταθμό: Α 251km
Ενημερώθηκε: 26/04/2017 23:50
Αίθριος
Αίθριος
 Ανεμοι από άπνοια
Ανεμος: άπνοια
Θερμοκρασία: 11°C
Σημείο Δρόσου: 6°C
Υγρασία: 72%
Βαρόμετρο: 1018 hPa
Περίληψη: Αίθριος
Ορατότητα: πάνω από 10 km
2017/04/26 20:50 LGAL 262050Z 00000KT CAVOK 11/06 Q1018
LGKV - Kavala/Crysoupolis-Elev 5m
Απόσταση από σταθμό: ΑΒΑ 144km
Ενημερώθηκε: 26/04/2017 23:50
Αίθριος
Αίθριος
 Ανεμοι από άπνοια
Ανεμος: άπνοια
Θερμοκρασία: 12°C
Σημείο Δρόσου: 7°C
Υγρασία: 72%
Βαρόμετρο: 1018 hPa
Περίληψη: Αίθριος
Ορατότητα: πάνω από 10 km
2017/04/26 20:50 LGKV 262050Z 00000KT CAVOK 12/07 Q1018
 
LGSK - Skiathos Island-Elev 15m
Απόσταση από σταθμό: ΝΝΑ 168km
Ενημερώθηκε: 26/04/2017 21:50
ΜΗ Ενημερωμένο METAR!
Αίθριος
Αίθριος
 Ανεμοι από Ν
Ανεμος: Ν 7 km/h
Θερμοκρασία: 16°C
Σημείο Δρόσου: 7°C
Υγρασία: 55%
Βαρόμετρο: 1017 hPa
Περίληψη: Αίθριος
Ορατότητα: πάνω από 10 km
2017/04/26 18:50 LGSK 261850Z 19004KT CAVOK 16/07 Q1017
LGLM - Limnos Island-Elev 5m
Απόσταση από σταθμό: ΑΝΑ 210km
Ενημερώθηκε: 26/04/2017 22:50
ΜΗ Ενημερωμένο METAR!
Αίθριος
Αίθριος
 Ανεμοι από άπνοια
Ανεμος: άπνοια
Θερμοκρασία: 10°C
Σημείο Δρόσου: 8°C
Υγρασία: 88%
Βαρόμετρο: 1018 hPa
Περίληψη: Αίθριος
Ορατότητα: πάνω από 10 km
2017/04/26 19:50 LGLM 261950Z 00000KT CAVOK 10/08 Q1018
 
LGMT - Mitilini Island-Elev 17m
Απόσταση από σταθμό: ΑΝΑ 358km
Ενημερώθηκε: 26/04/2017 22:20
ΜΗ Ενημερωμένο METAR!
Αίθριος
Αίθριος
 Ανεμοι από άπνοια
Ανεμος: άπνοια
Θερμοκρασία: 15°C
Σημείο Δρόσου: 6°C
Υγρασία: 55%
Βαρόμετρο: 1018 hPa
Περίληψη: Αίθριος
Ορατότητα: πάνω από 10 km
2017/04/26 19:20 LGMT 261920Z 00000KT CAVOK 15/06 Q1018
LGSY - Skiros Island-Elev 15m
Απόσταση από σταθμό: ΝΑ 227km
Ενημερώθηκε: 26/04/2017 22:50
ΜΗ Ενημερωμένο METAR!
Αίθριος
Αίθριος
 Ανεμοι από ΑΝΑ
Ανεμος: ΑΝΑ 7 km/h
Θερμοκρασία: 14°C
Σημείο Δρόσου: 9°C
Υγρασία: 72%
Βαρόμετρο: 1017 hPa
Περίληψη: Αίθριος
Ορατότητα: πάνω από 10 km
2017/04/26 19:50 LGSY 261950Z 11004KT CAVOK 14/09 Q1017 BLU
 
LGKZ - Kozani-Elev 628m
Απόσταση από σταθμό: ΔΝΔ 102km
Ενημερώθηκε: 26/04/2017 20:50
ΜΗ Ενημερωμένο METAR!
Αίθριος
Αίθριος
 Ανεμοι από άπνοια
Ανεμος: άπνοια
Θερμοκρασία: 16°C
Σημείο Δρόσου: 7°C
Υγρασία: 55%
Βαρόμετρο: 1018 hPa
Περίληψη: Αίθριος
Ορατότητα: πάνω από 10 km
2017/04/26 17:50 LGKZ 261750Z 00000KT CAVOK 16/07 Q1018
LGIO - Ioannina-Elev 476m
Απόσταση από σταθμό: ΔΝΔ 209km
Ενημερώθηκε: 26/04/2017 22:20
ΜΗ Ενημερωμένο METAR!
Διάσπαρτα Νέφη
Διάσπαρτα Νέφη
 Ανεμοι από μεταβλητός
Ανεμος: μεταβλητός 0 km/h
Θερμοκρασία: 12°C
Σημείο Δρόσου: 7°C
Υγρασία: 72%
Βαρόμετρο: 1020 hPa
Νέφωση: Διάσπαρτα Νέφη
Ορατότητα: 10 km
Λεπτομέρειες Νεφών: Διάσπαρτα Νέφη 1067 m
2017/04/26 19:20 LGIO 261920Z /////KT 9999 FEW035 12/07 Q1020
 
LGZA - Zakinthos-Elev 3m
Απόσταση από σταθμό: ΝΝΔ 367km
Ενημερώθηκε: 26/04/2017 21:50
ΜΗ Ενημερωμένο METAR!
Αίθριος
Αίθριος
 Ανεμοι από άπνοια
Ανεμος: άπνοια
Θερμοκρασία: 15°C
Σημείο Δρόσου: 13°C
Υγρασία: 88%
Βαρόμετρο: 1018 hPa
Περίληψη: Αίθριος
Ορατότητα: πάνω από 10 km
2017/04/26 18:50 LGZA 261850Z 00000KT CAVOK 15/13 Q1018
LGKR - Corfu Island-Elev 2m
Απόσταση από σταθμό: ΔΝΔ 282km
Ενημερώθηκε: 26/04/2017 23:50
Αίθριος
Αίθριος
 Ανεμοι από άπνοια
Ανεμος: άπνοια
Θερμοκρασία: 14°C
Σημείο Δρόσου: 11°C
Υγρασία: 82%
Βαρόμετρο: 1018 hPa
Περίληψη: Αίθριος
Ορατότητα: πάνω από 10 km
2017/04/26 20:50 LGKR 262050Z 00000KT CAVOK 14/11 Q1018 NOSIG
 
LGSO - Syros Island-Elev 72m
Απόσταση από σταθμό: ΝΝΑ 397km
Ενημερώθηκε: 26/04/2017 13:50
ΜΗ Ενημερωμένο METAR!
Αίθριος
Αίθριος
 Ανεμοι από ΑΒΑ
Ανεμος: ΑΒΑ 11 km/h
Θερμοκρασία: 20°C
Σημείο Δρόσου: 7°C
Υγρασία: 43%
Βαρόμετρο: 1020 hPa
Περίληψη: Αίθριος
Ορατότητα: πάνω από 10 km
2017/04/26 10:50 LGSO 261050Z 06006KT CAVOK 20/07 Q1020
LGMK - Mikonos Island-Elev 123m
Απόσταση από σταθμό: ΝΝΑ 412km
Ενημερώθηκε: 26/04/2017 23:20
Αίθριος
Αίθριος
 Ανεμοι από Β
Ανεμος: Β 7 km/h
Θερμοκρασία: 15°C
Σημείο Δρόσου: 9°C
Υγρασία: 68%
Βαρόμετρο: 1018 hPa
Περίληψη: Αίθριος
Ορατότητα: πάνω από 10 km
2017/04/26 20:20 LGMK 262020Z 36004KT CAVOK 15/09 Q1018
 
LGSR - Santorini Island-Elev 40m
Απόσταση από σταθμό: ΝΝΑ 520km
Ενημερώθηκε: 26/04/2017 23:50
Αίθριος
Αίθριος
 Ανεμοι από ΔΒΔ
Ανεμος: ΔΒΔ 11 km/h
Θερμοκρασία: 14°C
Σημείο Δρόσου: 6°C
Υγρασία: 59%
Βαρόμετρο: 1018 hPa
Περίληψη: Αίθριος
Ορατότητα: πάνω από 10 km
2017/04/26 20:50 LGSR 262050Z 29006KT CAVOK 14/06 Q1018
LGKL - Kalamata-Elev 8m
Απόσταση από σταθμό: Ν 405km
Ενημερώθηκε: 26/04/2017 23:50
Αίθριος
Αίθριος
 Ανεμοι από άπνοια
Ανεμος: άπνοια
Θερμοκρασία: 10°C
Σημείο Δρόσου: 7°C
Υγρασία: 82%
Βαρόμετρο: 1019 hPa
Περίληψη: Αίθριος
Ορατότητα: πάνω από 10 km
2017/04/26 20:50 LGKL 262050Z 00000KT CAVOK 10/07 Q1019
 
LGIR - Iraklion/Crete-Elev 5m
Απόσταση από σταθμό: ΝΝΑ 622km
Ενημερώθηκε: 26/04/2017 23:50
Αίθριος
Αίθριος
 Ανεμοι από Ν
Ανεμος: Ν 11 km/h
Θερμοκρασία: 12°C
Σημείο Δρόσου: 7°C
Υγρασία: 72%
Βαρόμετρο: 1018 hPa
Περίληψη: Αίθριος
Ορατότητα: πάνω από 10 km
2017/04/26 20:50 LGIR 262050Z 18006KT CAVOK 12/07 Q1018 NOSIG
LGRP - Rhodes-Elev 5m
Απόσταση από σταθμό: ΝΑ 649km
Ενημερώθηκε: 26/04/2017 23:50
Αίθριος
Αίθριος
 Ανεμοι από ΝΔ
Ανεμος: ΝΔ 9 km/h
Θερμοκρασία: 17°C
Σημείο Δρόσου: 11°C
Υγρασία: 68%
Βαρόμετρο: 1017 hPa
Περίληψη: Αίθριος
Ορατότητα: πάνω από 10 km
2017/04/26 20:50 LGRP 262050Z 22005KT CAVOK 17/11 Q1017 NOSIG
 
LWOH - Ohrid/FYROM-Elev 761m
Απόσταση από σταθμό: ΔΒΔ 188km
Ενημερώθηκε: 26/04/2017 17:00
ΜΗ Ενημερωμένο METAR!
Αίθριος
Αίθριος
 Ανεμοι από ΝΑ
Ανεμος: ΝΑ 9 km/h
Θερμοκρασία: 21°C
Σημείο Δρόσου: -1°C
Υγρασία: 23%
Βαρόμετρο: 1017 hPa
Περίληψη: Αίθριος
Ορατότητα: πάνω από 10 km
2017/04/26 14:00 LWOH 261400Z 14005KT 110V170 CAVOK 21/M01 Q1017
LBSF - Sofia/Bulgaria-Elev 595m
Απόσταση από σταθμό: Β 227km
Ενημερώθηκε: 27/04/2017 00:00
Αίθριος
Αίθριος
 Ανεμοι από Α
Ανεμος: Α 9 km/h
Θερμοκρασία: 10°C
Δείκτης Ψύχρας: 9°C
Σημείο Δρόσου: 5°C
Υγρασία: 71%
Βαρόμετρο: 1017 hPa
Περίληψη: Αίθριος
Ορατότητα: πάνω από 10 km
2017/04/26 21:00 LBSF 262100Z 10005KT CAVOK 10/05 Q1017 NOSIG